Time,TemperatureF,DewpointF,PressureIn,WindDirection,WindDirectionDegrees,WindSpeedMPH,WindSpeedGustMPH,Humidity,HourlyPrecipIn,Conditions,Clouds,dailyrainin,SoftwareType,DateUTC
2013-08-20 00:12:00,68.0,64.0,30.01,SSW,199,0.0,0.0,86,0.00,,,0.00,,2013-08-20 05:12:00,
2013-08-20 00:22:00,68.0,64.0,30.01,SSW,199,0.0,0.0,86,0.00,,,0.00,,2013-08-20 05:22:00,
2013-08-20 00:42:00,68.0,64.0,30.01,SSW,199,0.0,0.0,86,0.00,,,0.00,,2013-08-20 05:42:00,
2013-08-20 00:52:00,68.0,64.0,30.01,SSW,199,0.0,0.0,86,0.00,,,0.00,,2013-08-20 05:52:00,
2013-08-20 01:11:00,69.0,65.0,30.01,SSW,199,0.0,0.0,86,0.00,,,0.00,,2013-08-20 06:11:00,
2013-08-20 01:21:00,69.0,64.0,30.01,SSW,199,0.0,0.0,85,0.00,,,0.00,,2013-08-20 06:21:00,
2013-08-20 01:42:00,68.0,64.0,30.01,SSW,199,0.0,0.0,86,0.00,,,0.00,,2013-08-20 06:42:00,
2013-08-20 01:52:00,68.0,64.0,30.01,SSW,199,0.0,0.0,86,0.00,,,0.00,,2013-08-20 06:52:00,
2013-08-20 02:11:00,68.0,64.0,30.01,SSW,199,0.0,0.0,86,0.00,,,0.00,,2013-08-20 07:11:00,
2013-08-20 02:22:00,68.0,64.0,30.01,SSW,199,0.0,1.0,86,0.00,,,0.00,,2013-08-20 07:22:00,
2013-08-20 02:52:00,68.0,64.0,30.01,SSW,199,0.0,0.0,87,0.00,,,0.00,,2013-08-20 07:52:00,
2013-08-20 03:11:00,68.0,64.0,30.01,SSW,199,0.0,0.0,87,0.00,,,0.00,,2013-08-20 08:11:00,
2013-08-20 03:21:00,68.0,64.0,30.01,SSW,199,0.0,0.0,87,0.00,,,0.00,,2013-08-20 08:21:00,
2013-08-20 03:52:00,67.0,63.0,30.01,SSW,199,0.0,0.0,88,0.00,,,0.00,,2013-08-20 08:52:00,
2013-08-20 04:11:00,67.0,64.0,30.01,SSW,199,0.0,0.0,89,0.00,,,0.00,,2013-08-20 09:11:00,
2013-08-20 04:21:00,66.0,63.0,30.01,SSW,199,0.0,0.0,89,0.00,,,0.00,,2013-08-20 09:21:00,
2013-08-20 04:42:00,66.0,63.0,30.01,SSW,199,0.0,0.0,90,0.00,,,0.00,,2013-08-20 09:42:00,
2013-08-20 04:53:00,66.0,63.0,30.01,SSW,199,0.0,0.0,90,0.00,,,0.00,,2013-08-20 09:53:00,
2013-08-20 05:12:00,66.0,63.0,30.01,SSW,199,0.0,0.0,90,0.00,,,0.00,,2013-08-20 10:12:00,
2013-08-20 05:22:00,66.0,63.0,30.02,SSW,199,0.0,0.0,90,0.00,,,0.00,,2013-08-20 10:22:00,
2013-08-20 05:42:00,66.0,63.0,30.03,SSW,199,0.0,0.0,91,0.00,,,0.00,,2013-08-20 10:42:00,
2013-08-20 05:52:00,66.0,63.0,30.03,SSW,199,0.0,0.0,91,0.00,,,0.00,,2013-08-20 10:52:00,
2013-08-20 06:11:00,65.0,62.0,30.03,SSW,199,0.0,0.0,91,0.00,,,0.00,,2013-08-20 11:11:00,
2013-08-20 06:22:00,65.0,62.0,30.03,SSW,199,0.0,0.0,91,0.00,,,0.00,,2013-08-20 11:22:00,
2013-08-20 06:42:00,65.0,63.0,30.04,SSW,199,0.0,0.0,92,0.00,,,0.00,,2013-08-20 11:42:00,
2013-08-20 06:52:00,65.0,63.0,30.04,SSW,199,0.0,0.0,93,0.00,,,0.00,,2013-08-20 11:52:00,
2013-08-20 07:12:00,65.0,63.0,30.05,SSW,199,0.0,0.0,93,0.00,,,0.00,,2013-08-20 12:12:00,
2013-08-20 07:21:00,65.0,63.0,30.05,SSW,199,0.0,1.0,93,0.00,,,0.00,,2013-08-20 12:21:00,
2013-08-20 07:42:00,66.0,64.0,30.05,SSW,199,0.0,1.0,93,0.00,,,0.00,,2013-08-20 12:42:00,
2013-08-20 07:52:00,67.0,65.0,30.05,South,188,0.0,3.0,92,0.00,,,0.00,,2013-08-20 12:52:00,
2013-08-20 08:11:00,69.0,66.0,30.05,SSW,197,0.0,3.0,89,0.00,,,0.00,,2013-08-20 13:11:00,
2013-08-20 08:21:00,70.0,66.0,30.05,SSW,204,1.0,3.0,87,0.00,,,0.00,,2013-08-20 13:21:00,
2013-08-20 08:52:00,72.0,66.0,30.06,SW,216,2.0,6.0,82,0.00,,,0.00,,2013-08-20 13:52:00,
2013-08-20 09:11:00,74.0,67.0,30.06,SW,221,2.0,12.0,78,0.00,,,0.00,,2013-08-20 14:11:00,
2013-08-20 09:21:00,75.0,67.0,30.06,South,183,2.0,7.0,75,0.00,,,0.00,,2013-08-20 14:21:00,
2013-08-20 09:52:00,77.0,67.0,30.06,SSW,209,3.0,7.0,71,0.00,,,0.00,,2013-08-20 14:52:00,
2013-08-20 10:11:00,77.0,66.0,30.06,SW,219,4.0,9.0,69,0.00,,,0.00,,2013-08-20 15:11:00,
2013-08-20 10:22:00,78.0,67.0,30.06,SSW,208,3.0,7.0,69,0.00,,,0.00,,2013-08-20 15:22:00,
2013-08-20 10:43:00,79.0,68.0,30.06,South,178,0.0,8.0,68,0.00,,,0.00,,2013-08-20 15:43:00,
2013-08-20 10:53:00,80.0,68.0,30.06,SSW,205,2.0,5.0,67,0.00,,,0.00,,2013-08-20 15:53:00,
2013-08-20 11:15:00,81.0,69.0,30.05,South,173,1.0,8.0,66,0.00,,,0.00,,2013-08-20 16:15:00,
2013-08-20 11:30:00,-999.0,-99.9,30.05,SSW,201,2.0,5.0,64,0.00,,,0.00,,2013-08-20 16:30:00,
2013-08-20 11:42:00,83.0,68.0,30.05,SSW,201,1.0,7.0,61,0.00,,,0.00,,2013-08-20 16:42:00,
2013-08-20 11:52:00,83.0,68.0,30.05,SW,228,3.0,7.0,60,0.00,,,0.00,,2013-08-20 16:52:00,
2013-08-20 12:12:00,84.0,68.0,30.04,South,190,5.0,8.0,59,0.00,,,0.00,,2013-08-20 17:12:00,
2013-08-20 12:24:00,84.0,68.0,30.04,SSW,202,5.0,12.0,58,0.00,,,0.00,,2013-08-20 17:24:00,
2013-08-20 12:43:00,84.0,67.0,30.04,SW,217,5.0,9.0,56,0.00,,,0.00,,2013-08-20 17:43:00,
2013-08-20 12:52:00,84.0,67.0,30.03,SSW,210,2.0,8.0,56,0.00,,,0.00,,2013-08-20 17:52:00,
2013-08-20 13:12:00,85.0,68.0,30.03,South,178,2.0,10.0,56,0.00,,,0.00,,2013-08-20 18:12:00,
2013-08-20 13:22:00,84.0,66.0,30.02,SSW,198,2.0,10.0,54,0.00,,,0.00,,2013-08-20 18:22:00,
2013-08-20 13:52:00,84.0,66.0,30.02,South,191,3.0,8.0,55,0.00,,,0.00,,2013-08-20 18:52:00,
2013-08-20 14:11:00,85.0,68.0,30.01,SSW,208,3.0,8.0,56,0.00,,,0.00,,2013-08-20 19:11:00,
2013-08-20 14:21:00,85.0,66.0,30.01,SSW,194,7.0,15.0,53,0.00,,,0.00,,2013-08-20 19:21:00,
2013-08-20 14:42:00,85.0,65.0,30.01,SSW,207,6.0,12.0,52,0.00,,,0.00,,2013-08-20 19:42:00,
2013-08-20 14:52:00,86.0,66.0,30.01,SSW,199,5.0,7.0,52,0.00,,,0.00,,2013-08-20 19:52:00,
2013-08-20 15:12:00,85.0,67.0,30.00,South,176,3.0,9.0,55,0.00,,,0.00,,2013-08-20 20:12:00,
2013-08-20 15:22:00,85.0,66.0,30.00,SSW,194,5.0,10.0,54,0.00,,,0.00,,2013-08-20 20:22:00,
2013-08-20 15:42:00,85.0,66.0,30.00,SSW,213,4.0,10.0,54,0.00,,,0.00,,2013-08-20 20:42:00,
2013-08-20 15:52:00,86.0,67.0,29.99,SSW,199,3.0,8.0,54,0.00,,,0.00,,2013-08-20 20:52:00,
2013-08-20 16:11:00,85.0,67.0,29.99,South,190,6.0,10.0,55,0.00,,,0.00,,2013-08-20 21:11:00,
2013-08-20 16:22:00,85.0,67.0,29.99,SSW,211,2.0,10.0,55,0.00,,,0.00,,2013-08-20 21:22:00,
2013-08-20 16:44:00,85.0,68.0,29.98,South,172,2.0,8.0,56,0.00,,,0.00,,2013-08-20 21:44:00,
2013-08-20 16:55:00,84.0,67.0,29.98,South,190,3.0,10.0,57,0.00,,,0.00,,2013-08-20 21:55:00,
2013-08-20 17:14:00,84.0,68.0,29.98,South,187,4.0,8.0,58,0.00,,,0.00,,2013-08-20 22:14:00,
2013-08-20 17:24:00,84.0,68.0,29.98,SW,225,3.0,7.0,58,0.00,,,0.00,,2013-08-20 22:24:00,
2013-08-20 17:42:00,84.0,68.0,29.98,SSW,201,3.0,7.0,59,0.00,,,0.00,,2013-08-20 22:42:00,
2013-08-20 17:53:00,84.0,67.0,29.98,SSW,201,3.0,10.0,57,0.00,,,0.00,,2013-08-20 22:53:00,
2013-08-20 18:12:00,83.0,67.0,29.98,South,182,3.0,9.0,58,0.00,,,0.00,,2013-08-20 23:12:00,
2013-08-20 18:22:00,83.0,67.0,29.98,SSW,207,3.0,8.0,58,0.00,,,0.00,,2013-08-20 23:22:00,
2013-08-20 18:52:00,83.0,66.0,29.98,South,186,3.0,9.0,57,0.00,,,0.00,,2013-08-20 23:52:00,
2013-08-20 19:12:00,82.0,67.0,29.98,South,183,2.0,7.0,60,0.00,,,0.00,,2013-08-21 00:12:00,
2013-08-20 19:22:00,82.0,67.0,29.98,SSW,211,0.0,9.0,60,0.00,,,0.00,,2013-08-21 00:22:00,
2013-08-20 19:42:00,81.0,67.0,29.98,SE,134,0.0,3.0,62,0.00,,,0.00,,2013-08-21 00:42:00,
2013-08-20 19:52:00,80.0,66.0,29.98,South,182,1.0,3.0,63,0.00,,,0.00,,2013-08-21 00:52:00,
2013-08-20 20:11:00,79.0,66.0,29.98,SSE,167,1.0,3.0,65,0.00,,,0.00,,2013-08-21 01:11:00,
2013-08-20 20:22:00,79.0,67.0,29.98,South,181,1.0,3.0,66,0.00,,,0.00,,2013-08-21 01:22:00,
2013-08-20 20:42:00,78.0,66.0,29.98,South,178,1.0,3.0,67,0.00,,,0.00,,2013-08-21 01:42:00,
2013-08-20 20:52:00,78.0,67.0,29.99,SSW,204,0.0,2.0,68,0.00,,,0.00,,2013-08-21 01:52:00,
2013-08-20 21:12:00,77.0,66.0,29.99,SSW,196,0.0,2.0,70,0.00,,,0.00,,2013-08-21 02:12:00,
2013-08-20 21:22:00,77.0,66.0,29.99,SSW,196,0.0,0.0,70,0.00,,,0.00,,2013-08-21 02:22:00,
2013-08-20 21:42:00,76.0,66.0,30.00,South,190,0.0,1.0,72,0.00,,,0.00,,2013-08-21 02:42:00,
2013-08-20 21:52:00,75.0,66.0,30.00,South,190,0.0,0.0,74,0.00,,,0.00,,2013-08-21 02:52:00,
2013-08-20 22:12:00,74.0,66.0,30.00,South,190,0.0,0.0,76,0.00,,,0.00,,2013-08-21 03:12:00,
2013-08-20 22:23:00,74.0,66.0,30.00,South,190,0.0,0.0,77,0.00,,,0.00,,2013-08-21 03:23:00,
2013-08-20 22:44:00,73.0,66.0,30.00,South,175,0.0,0.0,79,0.00,,,0.00,,2013-08-21 03:44:00,
2013-08-20 22:55:00,73.0,66.0,30.01,South,175,0.0,0.0,79,0.00,,,0.00,,2013-08-21 03:55:00,
2013-08-20 23:14:00,73.0,66.0,30.01,South,175,0.0,0.0,79,0.00,,,0.00,,2013-08-21 04:14:00,
2013-08-20 23:24:00,72.0,65.0,30.01,South,175,0.0,0.0,80,0.00,,,0.00,,2013-08-21 04:24:00,
2013-08-20 23:44:00,72.0,65.0,30.01,South,175,0.0,0.0,80,0.00,,,0.00,,2013-08-21 04:44:00,
2013-08-20 23:54:00,72.0,65.0,30.01,South,178,0.0,2.0,80,0.00,,,0.00,,2013-08-21 04:54:00,